Terminal Aerodrome Forecast
Issued by NWS

Current Version | Previous Version | Text Only | Print | Product List | Glossary Off
Versions: 1 2 3 4 5 6 7 8 9 10 11 12 13 14 15 16 17 18

915
FTUS41 KPBZ 270918 AAA
TAFMGW
TAF AMD
KMGW 270918Z 2709/2806 VRB03KT 3SM BR SCT250
      TEMPO 2709/2711 1SM BR
     FM271230 VRB03KT P6SM SCT040=

USA.gov is the U.S. government's official web portal to all federal, state and local government web resources and services.